Terminal Aerodrome Forecast
Issued by NWS Blacksburg, VA

Home | Current Version | Previous Version | Text Only | Print | Product List | Glossary On
Versions: 1 2 3 4 5 6 7 8 9 10 11
000
FTUS41 KRNK 291722
TAFROA
TAF
KROA 291722Z 2918/3018 00000KT P6SM SCT200
     FM292100 11005KT P6SM SCT060
     FM301400 07003KT P6SM SCT100 BKN250=

USA.gov is the U.S. government's official web portal to all federal, state and local government web resources and services.